Grand Holiday — CQNH — position and weather

sailwx.info

Track history (hours):
 
Tides and Currents Weather Stations Pressure Air Temp Water Temp Dewpoint Dewpoint Depression Visibility Wind Speed Wind Dir Waves Ship Positions

Grand Holiday

Last reported at 2014-Oct-22 09:32 UTC. Time now 2014-Oct-22 09:51 UTC.
Position N 44°19' E 008°29'.

Length 222 m; draft 7.7 m.

Type: Passenger vessel. MMSI: 255803790.

Date/timePositionNaut miles runAvg speedWind from/ knotsBaromVisibWave heightAir tempDewpointWater temp
2014-Oct-22 09:32N 44°19' E 008°29'0 0.0
2014-Oct-22 08:14N 44°19' E 008°29'0 0.0
2014-Oct-22 05:15N 44°19' E 008°29'0 0.3
2014-Oct-22 04:33N 44°19' E 008°29'4 3.4
2014-Oct-22 03:31N 44°16' E 008°32'7 6.8
2014-Oct-22 02:30N 44°09' E 008°32'7 7.3
2014-Oct-22 01:31N 44°02' E 008°32'7 6.9
2014-Oct-22 00:33N 43°55' E 008°31'7 7.4
2014-Oct-21 23:33N 43°49' E 008°25'8 7.3
2014-Oct-21 22:30N 43°43' E 008°18'8 7.3
2014-Oct-21 21:26N 43°40' E 008°09'7 7.6
2014-Oct-21 20:32N 43°37' E 007°60'11 7.7
2014-Oct-21 19:07N 43°34' E 007°46'5 7.4
2014-Oct-21 18:27N 43°34' E 007°39'7 7.3
2014-Oct-21 17:33N 43°36' E 007°30'8 7.6
2014-Oct-21 16:33N 43°39' E 007°20'3 2.6
2014-Oct-21 15:30N 43°42' E 007°19'0 0.0
2014-Oct-21 14:29N 43°42' E 007°19'0 0.0
2014-Oct-21 13:29N 43°42' E 007°19'0 0.1
2014-Oct-21 12:22N 43°42' E 007°19'0 0.0
2014-Oct-21 11:28N 43°42' E 007°19'0 0.0
2014-Oct-21 10:21N 43°42' E 007°19'0 0.0
2014-Oct-21 09:33N 43°42' E 007°19'0 0.0
2014-Oct-21 08:33N 43°42' E 007°19'0 0.0
2014-Oct-21 07:32N 43°42' E 007°19'0 0.0
2014-Oct-21 06:32N 43°42' E 007°19'0 0.0
2014-Oct-21 05:33N 43°42' E 007°19'4 3.8
2014-Oct-21 04:33N 43°38' E 007°19'8 7.9
2014-Oct-21 03:33N 43°30' E 007°19'9 9.4
2014-Oct-21 02:33N 43°21' E 007°16'1111.3
2014-Oct-21 01:33N 43°12' E 007°06'1111.1
2014-Oct-21 00:33N 43°04' E 006°56'1110.9
2014-Oct-20 23:31N 42°59' E 006°42'1111.2
2014-Oct-20 22:31N 42°56' E 006°28'1110.9
2014-Oct-20 21:32N 42°54' E 006°13'1111.2
2014-Oct-20 20:33N 42°55' E 005°58'1111.3
2014-Oct-20 19:33N 42°57' E 005°43'1212.1
2014-Oct-20 18:31N 43°03' E 005°28'1212.4
2014-Oct-20 17:33N 43°09' E 005°14'1010.0
2014-Oct-20 16:33N 43°19' E 005°16'4 3.1
2014-Oct-20 15:24N 43°21' E 005°20'0 0.0
2014-Oct-20 14:17N 43°21' E 005°20'0 0.0
2014-Oct-20 13:23N 43°21' E 005°20'0 0.0
2014-Oct-20 12:16N 43°21' E 005°20'0 0.0
2014-Oct-20 11:10N 43°21' E 005°20'0 0.0
2014-Oct-20 10:15N 43°21' E 005°20'0 0.0
2014-Oct-20 09:15N 43°21' E 005°20'0 0.0
2014-Oct-20 08:24N 43°21' E 005°20'0 0.1
2014-Oct-20 06:32N 43°21' E 005°20'5 4.8
2014-Oct-20 05:33N 43°19' E 005°14'9 9.4
2014-Oct-20 04:33N 43°10' E 005°08'8112.9
2014-Oct-19 22:17N 42°08' E 003°58'1714.0
2014-Oct-19 21:04N 41°54' E 003°44'2013.5
2014-Oct-19 19:33N 41°41' E 003°23'1613.1
2014-Oct-19 18:19N 41°35' E 003°03'1515.2
2014-Oct-19 17:20N 41°29' E 002°44'1211.9
2014-Oct-19 16:22N 41°25' E 002°30'1214.0
2014-Oct-19 15:32N 41°20' E 002°15'4 1.7
2014-Oct-19 13:06N 41°22' E 002°11'56 4.1
2014-Oct-18 23:33N 41°19' E 003°25'1211.1
2014-Oct-18 22:28N 41°20' E 003°41'1111.4
2014-Oct-18 21:33N 41°20' E 003°55'1110.3
2014-Oct-18 20:29N 41°20' E 004°10'1510.9
2014-Oct-18 19:08N 41°20' E 004°29'610.6
2014-Oct-18 18:32N 41°20' E 004°38'1111.0
2014-Oct-18 17:30N 41°20' E 004°53'1010.4
2014-Oct-18 16:33N 41°20' E 005°06'1110.8
2014-Oct-18 15:30N 41°19' E 005°21'1210.8
2014-Oct-18 14:21N 41°19' E 005°38'910.6
2014-Oct-18 13:32N 41°20' E 005°49'1510.6
2014-Oct-18 12:04N 41°20' E 006°10'1911.0
2014-Oct-18 10:20N 41°19' E 006°36'1315.6
2014-Oct-18 09:31N 41°19' E 006°53'154 4.8
2014-Oct-17 01:16N 42°07' E 010°09'1115.1
2014-Oct-17 00:33N 42°14' E 009°57'2016.8
2014-Oct-16 23:22N 42°33' E 009°49'3016.9
2014-Oct-16 21:33N 43°02' E 009°36'1716.6
2014-Oct-16 20:33N 43°18' E 009°40'1616.3
2014-Oct-16 19:33N 43°34' E 009°45'1616.3
2014-Oct-16 18:33N 43°50' E 009°51'1514.9
2014-Oct-16 17:33N 44°05' E 009°51'1 1.3
2014-Oct-16 16:32N 44°05' E 009°49'0 0.0
2014-Oct-16 15:32N 44°05' E 009°49'0 0.0
2014-Oct-16 14:31N 44°05' E 009°49'0 0.0
2014-Oct-16 13:31N 44°05' E 009°49'0 0.0
2014-Oct-16 12:33N 44°05' E 009°49'0 0.0
2014-Oct-16 11:33N 44°05' E 009°49'0 0.0
2014-Oct-16 10:32N 44°05' E 009°49'0 0.0
2014-Oct-16 09:32N 44°05' E 009°49'0 0.0
2014-Oct-16 08:32N 44°05' E 009°49'0 0.0
2014-Oct-16 07:31N 44°05' E 009°49'0 0.0
2014-Oct-16 06:31N 44°05' E 009°49'0 0.0
2014-Oct-16 05:33N 44°05' E 009°49'1 0.7
2014-Oct-16 04:33N 44°05' E 009°50'8 7.8
2014-Oct-16 03:33N 43°58' E 009°54'1212.5
2014-Oct-16 02:33N 43°57' E 009°37'1211.9
2014-Oct-16 01:33N 43°60' E 009°20'1212.2
2014-Oct-16 00:33N 44°06' E 009°06'1212.2
2014-Oct-15 23:33N 44°11' E 008°51'1212.1
2014-Oct-15 22:33N 44°17' E 008°36'5 4.7
2014-Oct-15 21:32N 44°19' E 008°29'0 0.0
2014-Oct-15 20:26N 44°19' E 008°29'0 0.0
2014-Oct-15 19:32N 44°19' E 008°29'0 0.0
2014-Oct-15 18:28N 44°19' E 008°29'0 0.0
2014-Oct-15 17:25N 44°19' E 008°29'0 0.0
2014-Oct-15 16:33N 44°19' E 008°29'0 0.0
2014-Oct-15 15:30N 44°19' E 008°29'0 0.0
2014-Oct-15 14:29N 44°19' E 008°29'0 0.0
2014-Oct-15 13:32N 44°19' E 008°29'0 0.0
2014-Oct-15 12:28N 44°19' E 008°29'0 0.0
2014-Oct-15 11:31N 44°19' E 008°29'0 0.0
2014-Oct-15 10:28N 44°19' E 008°29'0 0.0
2014-Oct-15 09:30N 44°19' E 008°29'0 0.0
2014-Oct-15 08:33N 44°19' E 008°29'0 0.0
2014-Oct-15 07:32N 44°19' E 008°29'0 0.0
2014-Oct-15 06:32N 44°19' E 008°29'0 0.0
2014-Oct-15 05:25N 44°19' E 008°29'0 0.0
2014-Oct-15 04:34N 44°19' E 008°29'6 5.6
2014-Oct-15 03:33N 44°13' E 008°32'1010.1
2014-Oct-15 02:34N 44°03' E 008°32'1010.2
2014-Oct-15 01:33N 43°53' E 008°30'1110.8
2014-Oct-15 00:33N 43°45' E 008°20'1110.6
2014-Oct-14 23:33N 43°39' E 008°08'1510.8
2014-Oct-14 22:09N 43°35' E 007°48'710.4
2014-Oct-14 21:31N 43°34' E 007°39'1010.6
2014-Oct-14 20:33N 43°38' E 007°26'6 6.4
2014-Oct-14 19:33N 43°42' E 007°19'0 0.0
2014-Oct-14 18:32N 43°42' E 007°19'0 0.0
2014-Oct-14 16:32N 43°42' E 007°19'0 0.0
2014-Oct-14 15:19N 43°42' E 007°19'0 0.1
2014-Oct-14 14:31N 43°42' E 007°19'0 0.0
2014-Oct-14 13:30N 43°42' E 007°19'0 0.0
2014-Oct-14 12:30N 43°42' E 007°19'0 0.0
2014-Oct-14 11:23N 43°42' E 007°19'0 0.1
2014-Oct-14 10:29N 43°42' E 007°19'0 0.0
2014-Oct-14 09:23N 43°42' E 007°19'0 0.0
2014-Oct-14 08:28N 43°42' E 007°19'0 0.0
2014-Oct-14 06:27N 43°42' E 007°19'0 0.1
2014-Oct-14 05:32N 43°42' E 007°19'4 4.0
2014-Oct-14 04:33N 43°38' E 007°18'1110.7
2014-Oct-14 03:33N 43°27' E 007°16'1111.4
2014-Oct-14 02:33N 43°16' E 007°11'1211.5
2014-Oct-14 01:31N 43°07' E 007°00'1111.2
2014-Oct-14 00:33N 43°00' E 006°49'1111.1
2014-Oct-13 23:32N 42°58' E 006°34'1310.8
2014-Oct-13 22:21N 42°55' E 006°17'910.8
2014-Oct-13 21:32N 42°55' E 006°05'1110.9
2014-Oct-13 20:33N 42°55' E 005°50'1110.7
2014-Oct-13 19:33N 42°60' E 005°37'2110.3
2014-Oct-13 17:33N 43°10' E 005°12'10 9.8
2014-Oct-13 16:33N 43°19' E 005°15'4 3.7
2014-Oct-13 15:31N 43°21' E 005°20'0 0.0
2014-Oct-13 14:31N 43°21' E 005°20'0 0.0
2014-Oct-13 13:27N 43°21' E 005°20'0 0.0
2014-Oct-13 12:30N 43°21' E 005°20'0 0.0
2014-Oct-13 11:05N 43°21' E 005°20'0 0.0
2014-Oct-13 10:29N 43°21' E 005°20'0 0.0
2014-Oct-13 09:29N 43°21' E 005°20'0 0.0
2014-Oct-13 08:04N 43°21' E 005°20'0 0.0
2014-Oct-13 07:10N 43°21' E 005°20'0 0.0
2014-Oct-13 06:32N 43°21' E 005°20'5 4.7
2014-Oct-13 05:33N 43°19' E 005°14'1111.4
2014-Oct-13 04:33N 43°09' E 005°07'12113.2
2014-Oct-12 19:21N 41°39' E 003°17'1113.5
2014-Oct-12 18:33N 41°34' E 003°05'1413.6
2014-Oct-12 17:33N 41°28' E 002°48'1413.7
2014-Oct-12 16:33N 41°22' E 002°32'1513.1
2014-Oct-12 15:25N 41°16' E 002°13'5 1.3
2014-Oct-12 11:07N 41°21' E 002°11'  
Track history (hours):
 
Tides and Currents Weather Stations Pressure Air Temp Water Temp Dewpoint Dewpoint Depression Visibility Wind Speed Wind Dir Waves Ship Positions

Grand Holiday

Last reported at 2014-Oct-22 09:32 UTC. Time now 2014-Oct-22 09:51 UTC.
Position N 44°19' E 008°29'.

Length 222 m; draft 7.7 m.

Type: Passenger vessel. MMSI: 255803790.

Date/timePositionNaut miles runAvg speedWind from/ knotsBaromVisibWave heightAir tempDewpointWater temp
2014-Oct-22 09:32N 44°19' E 008°29'0 0.0
2014-Oct-22 08:14N 44°19' E 008°29'0 0.0
2014-Oct-22 05:15N 44°19' E 008°29'0 0.3
2014-Oct-22 04:33N 44°19' E 008°29'4 3.4
2014-Oct-22 03:31N 44°16' E 008°32'7 6.8
2014-Oct-22 02:30N 44°09' E 008°32'7 7.3
2014-Oct-22 01:31N 44°02' E 008°32'7 6.9
2014-Oct-22 00:33N 43°55' E 008°31'7 7.4
2014-Oct-21 23:33N 43°49' E 008°25'8 7.3
2014-Oct-21 22:30N 43°43' E 008°18'8 7.3
2014-Oct-21 21:26N 43°40' E 008°09'7 7.6
2014-Oct-21 20:32N 43°37' E 007°60'11 7.7
2014-Oct-21 19:07N 43°34' E 007°46'5 7.4
2014-Oct-21 18:27N 43°34' E 007°39'7 7.3
2014-Oct-21 17:33N 43°36' E 007°30'8 7.6
2014-Oct-21 16:33N 43°39' E 007°20'3 2.6
2014-Oct-21 15:30N 43°42' E 007°19'0 0.0
2014-Oct-21 14:29N 43°42' E 007°19'0 0.0
2014-Oct-21 13:29N 43°42' E 007°19'0 0.1
2014-Oct-21 12:22N 43°42' E 007°19'0 0.0
2014-Oct-21 11:28N 43°42' E 007°19'0 0.0
2014-Oct-21 10:21N 43°42' E 007°19'0 0.0
2014-Oct-21 09:33N 43°42' E 007°19'0 0.0
2014-Oct-21 08:33N 43°42' E 007°19'0 0.0
2014-Oct-21 07:32N 43°42' E 007°19'0 0.0
2014-Oct-21 06:32N 43°42' E 007°19'0 0.0
2014-Oct-21 05:33N 43°42' E 007°19'4 3.8
2014-Oct-21 04:33N 43°38' E 007°19'8 7.9
2014-Oct-21 03:33N 43°30' E 007°19'9 9.4
2014-Oct-21 02:33N 43°21' E 007°16'1111.3
2014-Oct-21 01:33N 43°12' E 007°06'1111.1
2014-Oct-21 00:33N 43°04' E 006°56'1110.9
2014-Oct-20 23:31N 42°59' E 006°42'1111.2
2014-Oct-20 22:31N 42°56' E 006°28'1110.9
2014-Oct-20 21:32N 42°54' E 006°13'1111.2
2014-Oct-20 20:33N 42°55' E 005°58'1111.3
2014-Oct-20 19:33N 42°57' E 005°43'1212.1
2014-Oct-20 18:31N 43°03' E 005°28'1212.4
2014-Oct-20 17:33N 43°09' E 005°14'1010.0
2014-Oct-20 16:33N 43°19' E 005°16'4 3.1
2014-Oct-20 15:24N 43°21' E 005°20'0 0.0
2014-Oct-20 14:17N 43°21' E 005°20'0 0.0
2014-Oct-20 13:23N 43°21' E 005°20'0 0.0
2014-Oct-20 12:16N 43°21' E 005°20'0 0.0
2014-Oct-20 11:10N 43°21' E 005°20'0 0.0
2014-Oct-20 10:15N 43°21' E 005°20'0 0.0
2014-Oct-20 09:15N 43°21' E 005°20'0 0.0
2014-Oct-20 08:24N 43°21' E 005°20'0 0.1
2014-Oct-20 06:32N 43°21' E 005°20'5 4.8
2014-Oct-20 05:33N 43°19' E 005°14'9 9.4
2014-Oct-20 04:33N 43°10' E 005°08'8112.9
2014-Oct-19 22:17N 42°08' E 003°58'1714.0
2014-Oct-19 21:04N 41°54' E 003°44'2013.5
2014-Oct-19 19:33N 41°41' E 003°23'1613.1
2014-Oct-19 18:19N 41°35' E 003°03'1515.2
2014-Oct-19 17:20N 41°29' E 002°44'1211.9
2014-Oct-19 16:22N 41°25' E 002°30'1214.0
2014-Oct-19 15:32N 41°20' E 002°15'4 1.7
2014-Oct-19 13:06N 41°22' E 002°11'56 4.1
2014-Oct-18 23:33N 41°19' E 003°25'1211.1
2014-Oct-18 22:28N 41°20' E 003°41'1111.4
2014-Oct-18 21:33N 41°20' E 003°55'1110.3
2014-Oct-18 20:29N 41°20' E 004°10'1510.9
2014-Oct-18 19:08N 41°20' E 004°29'610.6
2014-Oct-18 18:32N 41°20' E 004°38'1111.0
2014-Oct-18 17:30N 41°20' E 004°53'1010.4
2014-Oct-18 16:33N 41°20' E 005°06'1110.8
2014-Oct-18 15:30N 41°19' E 005°21'1210.8
2014-Oct-18 14:21N 41°19' E 005°38'910.6
2014-Oct-18 13:32N 41°20' E 005°49'1510.6
2014-Oct-18 12:04N 41°20' E 006°10'1911.0
2014-Oct-18 10:20N 41°19' E 006°36'1315.6
2014-Oct-18 09:31N 41°19' E 006°53'154 4.8
2014-Oct-17 01:16N 42°07' E 010°09'1115.1
2014-Oct-17 00:33N 42°14' E 009°57'2016.8
2014-Oct-16 23:22N 42°33' E 009°49'3016.9
2014-Oct-16 21:33N 43°02' E 009°36'1716.6
2014-Oct-16 20:33N 43°18' E 009°40'1616.3
2014-Oct-16 19:33N 43°34' E 009°45'1616.3
2014-Oct-16 18:33N 43°50' E 009°51'1514.9
2014-Oct-16 17:33N 44°05' E 009°51'1 1.3
2014-Oct-16 16:32N 44°05' E 009°49'0 0.0
2014-Oct-16 15:32N 44°05' E 009°49'0 0.0
2014-Oct-16 14:31N 44°05' E 009°49'0 0.0
2014-Oct-16 13:31N 44°05' E 009°49'0 0.0
2014-Oct-16 12:33N 44°05' E 009°49'0 0.0
2014-Oct-16 11:33N 44°05' E 009°49'0 0.0
2014-Oct-16 10:32N 44°05' E 009°49'0 0.0
2014-Oct-16 09:32N 44°05' E 009°49'0 0.0
2014-Oct-16 08:32N 44°05' E 009°49'0 0.0
2014-Oct-16 07:31N 44°05' E 009°49'0 0.0
2014-Oct-16 06:31N 44°05' E 009°49'0 0.0
2014-Oct-16 05:33N 44°05' E 009°49'1 0.7
2014-Oct-16 04:33N 44°05' E 009°50'8 7.8
2014-Oct-16 03:33N 43°58' E 009°54'1212.5
2014-Oct-16 02:33N 43°57' E 009°37'1211.9
2014-Oct-16 01:33N 43°60' E 009°20'1212.2
2014-Oct-16 00:33N 44°06' E 009°06'1212.2
2014-Oct-15 23:33N 44°11' E 008°51'1212.1
2014-Oct-15 22:33N 44°17' E 008°36'5 4.7
2014-Oct-15 21:32N 44°19' E 008°29'0 0.0
2014-Oct-15 20:26N 44°19' E 008°29'0 0.0
2014-Oct-15 19:32N 44°19' E 008°29'0 0.0
2014-Oct-15 18:28N 44°19' E 008°29'0 0.0
2014-Oct-15 17:25N 44°19' E 008°29'0 0.0
2014-Oct-15 16:33N 44°19' E 008°29'0 0.0
2014-Oct-15 15:30N 44°19' E 008°29'0 0.0
2014-Oct-15 14:29N 44°19' E 008°29'0 0.0
2014-Oct-15 13:32N 44°19' E 008°29'0 0.0
2014-Oct-15 12:28N 44°19' E 008°29'0 0.0
2014-Oct-15 11:31N 44°19' E 008°29'0 0.0
2014-Oct-15 10:28N 44°19' E 008°29'0 0.0
2014-Oct-15 09:30N 44°19' E 008°29'0 0.0
2014-Oct-15 08:33N 44°19' E 008°29'0 0.0
2014-Oct-15 07:32N 44°19' E 008°29'0 0.0
2014-Oct-15 06:32N 44°19' E 008°29'0 0.0
2014-Oct-15 05:25N 44°19' E 008°29'0 0.0
2014-Oct-15 04:34N 44°19' E 008°29'6 5.6
2014-Oct-15 03:33N 44°13' E 008°32'1010.1
2014-Oct-15 02:34N 44°03' E 008°32'1010.2
2014-Oct-15 01:33N 43°53' E 008°30'1110.8
2014-Oct-15 00:33N 43°45' E 008°20'1110.6
2014-Oct-14 23:33N 43°39' E 008°08'1510.8
2014-Oct-14 22:09N 43°35' E 007°48'710.4
2014-Oct-14 21:31N 43°34' E 007°39'1010.6
2014-Oct-14 20:33N 43°38' E 007°26'6 6.4
2014-Oct-14 19:33N 43°42' E 007°19'0 0.0
2014-Oct-14 18:32N 43°42' E 007°19'0 0.0
2014-Oct-14 16:32N 43°42' E 007°19'0 0.0
2014-Oct-14 15:19N 43°42' E 007°19'0 0.1
2014-Oct-14 14:31N 43°42' E 007°19'0 0.0
2014-Oct-14 13:30N 43°42' E 007°19'0 0.0
2014-Oct-14 12:30N 43°42' E 007°19'0 0.0
2014-Oct-14 11:23N 43°42' E 007°19'0 0.1
2014-Oct-14 10:29N 43°42' E 007°19'0 0.0
2014-Oct-14 09:23N 43°42' E 007°19'0 0.0
2014-Oct-14 08:28N 43°42' E 007°19'0 0.0
2014-Oct-14 06:27N 43°42' E 007°19'0 0.1
2014-Oct-14 05:32N 43°42' E 007°19'4 4.0
2014-Oct-14 04:33N 43°38' E 007°18'1110.7
2014-Oct-14 03:33N 43°27' E 007°16'1111.4
2014-Oct-14 02:33N 43°16' E 007°11'1211.5
2014-Oct-14 01:31N 43°07' E 007°00'1111.2
2014-Oct-14 00:33N 43°00' E 006°49'1111.1
2014-Oct-13 23:32N 42°58' E 006°34'1310.8
2014-Oct-13 22:21N 42°55' E 006°17'910.8
2014-Oct-13 21:32N 42°55' E 006°05'1110.9
2014-Oct-13 20:33N 42°55' E 005°50'1110.7
2014-Oct-13 19:33N 42°60' E 005°37'2110.3
2014-Oct-13 17:33N 43°10' E 005°12'10 9.8
2014-Oct-13 16:33N 43°19' E 005°15'4 3.7
2014-Oct-13 15:31N 43°21' E 005°20'0 0.0
2014-Oct-13 14:31N 43°21' E 005°20'0 0.0
2014-Oct-13 13:27N 43°21' E 005°20'0 0.0
2014-Oct-13 12:30N 43°21' E 005°20'0 0.0
2014-Oct-13 11:05N 43°21' E 005°20'0 0.0
2014-Oct-13 10:29N 43°21' E 005°20'0 0.0
2014-Oct-13 09:29N 43°21' E 005°20'0 0.0
2014-Oct-13 08:04N 43°21' E 005°20'0 0.0
2014-Oct-13 07:10N 43°21' E 005°20'0 0.0
2014-Oct-13 06:32N 43°21' E 005°20'5 4.7
2014-Oct-13 05:33N 43°19' E 005°14'1111.4
2014-Oct-13 04:33N 43°09' E 005°07'12113.2
2014-Oct-12 19:21N 41°39' E 003°17'1113.5
2014-Oct-12 18:33N 41°34' E 003°05'1413.6
2014-Oct-12 17:33N 41°28' E 002°48'1413.7
2014-Oct-12 16:33N 41°22' E 002°32'1513.1
2014-Oct-12 15:25N 41°16' E 002°13'5 1.3
2014-Oct-12 11:07N 41°21' E 002°11'  

Dump ship's entire track history